Kirchberg-Wetter.de


Hier erfahren Sie, wie das Wetter wird...


WebCam am Fuchsberg more information WebCam am Fuchsberg


Thunder radar more information blitzortung!


Rain radar more information rain snow radar


Besuchen Sie unsere anderen Wetter Stationen:

Template documentation
and downloads

And another site



Es ist keine erhöhte Aufmerksamkeit aufgrund des Wetters notwendig.    Es gibt keine Warnungen.

METAR-Meldungen aus der Umgebung

   
EHVK - Volkel Rnlafb, Netherlands
Entfernung von der Station bis: SW 18 km
Aktualisierung: 12-04-2021 02:25
Klar  
Klar  
   Wind: Westen 7.4 km/h
Wind: Westen 7.4 km/h
Temperatur: 0°C
Gefühlt: -3°C
Taupunkt: -2°C
Luftfeuchte: 87%
Luftdruck: 1022 hPa
Bewölkt: Klar
Sichtbarkeit: More than 10 km
Bewölkung: Klar
EHVK 120025Z AUTO 26004KT 9999 NCD M00/M02 Q1022 BLU
EDLV - Niederrhein, Germany
Entfernung von der Station bis: SO 25 km
Aktualisierung: 11-04-2021 23:50
Nicht aktuell
Klar  
Klar  
   Wind: WNW 5.6 km/h
Wind: WNW 5.6 km/h
Temperatur: 2°C
Gefühlt: 1°C
Taupunkt: -1°C
Luftfeuchte: 81%
Luftdruck: 1021 hPa
Sichtbarkeit: More than 10 km
Bewölkung: Klar
EDLV 112150Z 29003KT CAVOK 02/M01 Q1021
EHDL - Deelen Rnlafb, Netherlands
Entfernung von der Station bis: N 35 km
Aktualisierung: 12-04-2021 02:25
Klar  
Klar  
   Wind: variiert 3.7 km/h
Wind: variiert 3.7 km/h
Temperatur: -2°C
Taupunkt: -3°C
Luftfeuchte: 93%
Luftdruck: 1022 hPa
Bewölkt: Klar
Sichtbarkeit: More than 10 km
Bewölkung: Klar
EHDL 120025Z AUTO VRB02KT 9999 NCD M02/M03 Q1022 BLU
EHEH - Eindhoven Rnlafb, Netherlands
Entfernung von der Station bis: SW 48 km
Aktualisierung: 12-04-2021 02:25
Klar  
Klar  
   Wind: WSW 7.4 km/h
Wind: WSW 7.4 km/h
Temperatur: -1°C
Gefühlt: -4°C
Taupunkt: -2°C
Luftfeuchte: 93%
Luftdruck: 1023 hPa
Bewölkt: Klar
Sichtbarkeit: More than 10 km
Bewölkung: Klar
EHEH 120025Z AUTO 25004KT 9999 NCD M01/M02 Q1023 BLU
EHGR - Gilze-Rijen Rnla, Netherlands
Entfernung von der Station bis: WSW 70 km
Aktualisierung: 12-04-2021 02:25
Klar  
Klar  
   Wind: Westen 5.6 km/h
Wind: Westen 5.6 km/h
Temperatur: 0°C
Gefühlt: -2°C
Taupunkt: -1°C
Luftfeuchte: 93%
Luftdruck: 1023 hPa
Bewölkt: Klar
Sichtbarkeit: More than 10 km
Bewölkung: Klar
EHGR 120025Z AUTO 26003KT 9999 NCD 00/M01 Q1023 BLU
EBBL - Kleine-Brogel(Ba, Belgium
Entfernung von der Station bis: SSW 71 km
Aktualisierung: 12-04-2021 02:25
Klar  
Klar  
   Wind: WSW 5.6 km/h
Wind: WSW 5.6 km/h
Temperatur: -1°C
Gefühlt: -3°C
Taupunkt: -2°C
Luftfeuchte: 93%
Luftdruck: 1023 hPa
Bewölkt: Klar
Sichtbarkeit: More than 10 km
Bewölkung: Klar
EBBL 120025Z AUTO 25003KT 9999 NCD M01/M02 Q1023 BLU

Script entwickelt von  Saratoga-weather.org Angepasst für das Template von  Weerstation Leuven

Sie finden unser Wetter-Infos auch auf:

Weather Underground

WeatherlinkIP

Wetternetz-Sachsen

Von uns verwendete Ausrüstung:

Wetterstation
Davis Vantage Pro2 Plus

Wetterprogramm
Meteobridge

WetterComputer
TP-Link TL-MR3020

Davis Vantage Pro2 Plus

Meteobridge

TP-Link TL-MR3020